createdAt,value
2023-01-18T00:01:21.225Z,75.40
2023-01-18T00:03:48.392Z,75.27
2023-01-18T00:06:17.272Z,75.72
2023-01-18T00:08:44.431Z,75.59
2023-01-18T00:11:15.355Z,75.88
2023-01-18T00:13:43.477Z,76.02
2023-01-18T00:16:16.259Z,75.90
2023-01-18T00:18:44.212Z,76.04
2023-01-18T00:21:11.982Z,76.32
2023-01-18T00:23:39.334Z,76.30
2023-01-18T00:26:09.568Z,76.51
2023-01-18T00:28:37.636Z,76.65
2023-01-18T00:31:20.950Z,76.75
2023-01-18T00:33:49.972Z,77.09
2023-01-18T00:36:18.141Z,77.10
2023-01-18T00:38:51.022Z,77.28
2023-01-18T00:41:18.690Z,77.32
2023-01-18T00:43:45.947Z,77.44
2023-01-18T00:46:19.409Z,77.32
2023-01-18T00:48:47.829Z,77.51
2023-01-18T00:51:20.456Z,77.47
2023-01-18T00:53:47.978Z,77.97
2023-01-18T00:56:18.519Z,77.64
2023-01-18T00:58:45.867Z,77.89
2023-01-18T01:01:14.317Z,78.03
2023-01-18T01:04:00.341Z,78.13
2023-01-18T01:06:46.006Z,78.23
2023-01-18T01:09:29.033Z,78.47
2023-01-18T01:12:16.875Z,78.56
2023-01-18T01:15:05.402Z,78.54
2023-01-18T01:17:54.674Z,78.95
2023-01-18T01:20:42.806Z,79.10
2023-01-18T01:23:33.793Z,79.16
2023-01-18T01:26:08.184Z,79.89
2023-01-18T01:28:45.504Z,79.64
2023-01-18T01:31:14.919Z,79.82
2023-01-18T01:33:42.371Z,79.79
2023-01-18T01:36:14.988Z,79.93
2023-01-18T01:38:42.219Z,80.38
2023-01-18T01:41:15.940Z,80.18
2023-01-18T01:43:44.632Z,80.51
2023-01-18T01:46:18.003Z,80.96
2023-01-18T01:48:47.050Z,81.79
2023-01-18T01:51:19.272Z,81.21
2023-01-18T01:53:49.492Z,81.36
2023-01-18T01:56:19.634Z,81.26
2023-01-18T01:58:51.340Z,81.22
2023-01-18T02:01:18.502Z,81.20
2023-01-18T02:03:45.893Z,82.14
2023-01-18T02:06:30.964Z,81.78
2023-01-18T02:09:04.039Z,81.73
2023-01-18T02:11:31.305Z,81.71
2023-01-18T02:14:03.686Z,81.63
2023-01-18T02:16:40.182Z,81.74
2023-01-18T02:19:13.441Z,81.54
2023-01-18T02:21:46.004Z,81.62
2023-01-18T02:24:25.357Z,81.90
2023-01-18T02:27:05.588Z,81.89
2023-01-18T02:29:32.570Z,81.83
2023-01-18T02:32:14.140Z,81.81
2023-01-18T02:35:08.932Z,82.07
2023-01-18T02:37:54.504Z,82.16
2023-01-18T02:40:39.260Z,82.80
2023-01-18T02:43:28.740Z,82.52
2023-01-18T02:46:17.213Z,82.29
2023-01-18T02:48:45.832Z,82.35
2023-01-18T02:51:12.910Z,82.40
2023-01-18T02:53:43.988Z,82.46
2023-01-18T02:56:17.963Z,82.51
2023-01-18T02:58:51.606Z,82.46
2023-01-18T03:01:25.763Z,82.65
2023-01-18T03:03:58.803Z,82.61
2023-01-18T03:06:29.613Z,83.02
2023-01-18T03:08:59.021Z,83.29
2023-01-18T03:11:38.357Z,83.13
2023-01-18T03:14:36.821Z,83.21
2023-01-18T03:17:12.275Z,83.08
2023-01-18T03:20:09.431Z,83.39
2023-01-18T03:23:07.779Z,83.22
2023-01-18T03:25:48.009Z,83.36
2023-01-18T03:28:41.990Z,83.13
2023-01-18T03:31:36.575Z,83.46
2023-01-18T03:34:17.234Z,83.42
2023-01-18T03:36:51.864Z,83.49
2023-01-18T03:39:44.632Z,83.64
2023-01-18T03:42:22.024Z,83.62
2023-01-18T03:45:02.651Z,83.87
2023-01-18T03:47:30.422Z,83.97
2023-01-18T03:49:58.094Z,83.92
2023-01-18T03:52:28.214Z,84.02
2023-01-18T03:55:17.272Z,84.16
2023-01-18T03:57:50.373Z,84.09
2023-01-18T04:00:18.343Z,83.82
2023-01-18T04:02:48.320Z,84.08
2023-01-18T04:05:16.847Z,84.40
2023-01-18T04:07:44.407Z,84.26
2023-01-18T04:10:11.866Z,84.07
2023-01-18T04:12:39.328Z,84.07
2023-01-18T04:15:06.897Z,83.94
2023-01-18T04:17:34.175Z,84.13
2023-01-18T04:20:01.529Z,83.92
2023-01-18T04:22:28.773Z,84.02
2023-01-18T04:24:55.986Z,84.12
2023-01-18T04:27:24.823Z,84.00
2023-01-18T04:29:52.407Z,84.04
2023-01-18T04:32:19.745Z,83.90
2023-01-18T04:34:47.005Z,83.74
2023-01-18T04:37:14.363Z,83.75
2023-01-18T04:39:41.524Z,83.66
2023-01-18T04:42:08.680Z,83.80
2023-01-18T04:44:36.546Z,83.62
2023-01-18T04:47:03.917Z,83.66
2023-01-18T04:49:31.060Z,83.83
2023-01-18T04:51:58.320Z,83.59
2023-01-18T04:54:25.990Z,83.55
2023-01-18T04:56:53.141Z,83.52
2023-01-18T04:59:20.091Z,83.42
2023-01-18T05:01:47.595Z,83.49
2023-01-18T05:04:15.127Z,83.40
2023-01-18T05:06:42.481Z,83.31
2023-01-18T05:09:12.195Z,83.46
2023-01-18T05:11:39.249Z,83.49
2023-01-18T05:14:06.420Z,83.19
2023-01-18T05:16:33.596Z,83.34
2023-01-18T05:19:00.919Z,83.27
2023-01-18T05:21:28.276Z,83.09
2023-01-18T05:23:55.440Z,83.09
2023-01-18T05:26:23.872Z,82.76
2023-01-18T05:28:56.809Z,82.89
2023-01-18T05:31:24.817Z,82.80
2023-01-18T05:33:52.854Z,82.60
2023-01-18T05:36:20.128Z,82.69
2023-01-18T05:38:47.473Z,82.58
2023-01-18T05:41:14.936Z,82.64
2023-01-18T05:43:42.705Z,82.41
2023-01-18T05:46:10.042Z,82.45
2023-01-18T05:48:37.324Z,82.45
2023-01-18T05:51:09.882Z,82.40
2023-01-18T05:53:37.674Z,82.32
2023-01-18T05:56:06.884Z,82.22
2023-01-18T05:58:34.955Z,82.08
2023-01-18T06:01:02.360Z,82.00
2023-01-18T06:03:29.881Z,82.12
2023-01-18T06:05:58.675Z,81.99
2023-01-18T06:08:26.338Z,81.84
2023-01-18T06:10:55.331Z,81.89
2023-01-18T06:13:24.536Z,81.73
2023-01-18T06:15:54.051Z,81.64
2023-01-18T06:18:22.655Z,81.61
2023-01-18T06:20:54.295Z,81.47
2023-01-18T06:23:21.393Z,81.26
2023-01-18T06:25:48.605Z,81.19
2023-01-18T06:28:16.414Z,81.16
2023-01-18T06:30:44.555Z,81.02
2023-01-18T06:33:13.415Z,80.81
2023-01-18T06:35:41.215Z,80.89
2023-01-18T06:38:09.052Z,80.72
2023-01-18T06:40:37.376Z,80.60
2023-01-18T06:43:05.035Z,80.34
2023-01-18T06:45:33.450Z,80.27
2023-01-18T06:48:00.659Z,80.33
2023-01-18T06:50:27.888Z,80.14
2023-01-18T06:52:55.430Z,79.87
2023-01-18T06:55:23.003Z,79.91
2023-01-18T06:57:50.327Z,79.90
2023-01-18T07:00:20.524Z,79.85
2023-01-18T07:02:48.054Z,79.81
2023-01-18T07:05:15.293Z,79.66
2023-01-18T07:07:42.569Z,79.40
2023-01-18T07:10:10.346Z,79.40
2023-01-18T07:12:37.372Z,79.16
2023-01-18T07:15:20.547Z,79.04
2023-01-18T07:17:49.794Z,79.09
2023-01-18T07:20:17.205Z,78.95
2023-01-18T07:22:44.462Z,79.12
2023-01-18T07:25:12.806Z,79.11
2023-01-18T07:27:43.153Z,78.86
2023-01-18T07:30:11.921Z,78.85
2023-01-18T07:32:39.710Z,78.91
2023-01-18T07:35:06.983Z,78.60
2023-01-18T07:37:35.542Z,78.61
2023-01-18T07:40:03.395Z,78.52
2023-01-18T07:42:31.448Z,77.94
2023-01-18T07:44:59.228Z,78.22
2023-01-18T07:47:27.638Z,78.07
2023-01-18T07:49:54.875Z,77.97
2023-01-18T07:52:22.141Z,77.94
2023-01-18T07:54:49.977Z,77.85
2023-01-18T07:57:17.877Z,77.69
2023-01-18T07:59:44.928Z,77.60
2023-01-18T08:02:14.062Z,77.68
2023-01-18T08:04:41.517Z,77.64
2023-01-18T08:07:08.960Z,77.45
2023-01-18T08:09:36.265Z,77.11
2023-01-18T08:12:03.726Z,77.33
2023-01-18T08:14:30.928Z,77.38
2023-01-18T08:16:58.188Z,77.44
2023-01-18T08:19:26.159Z,77.15
2023-01-18T08:21:53.325Z,77.25
2023-01-18T08:24:20.380Z,77.04
2023-01-18T08:26:47.689Z,76.73
2023-01-18T08:29:14.887Z,76.33
2023-01-18T08:31:41.991Z,76.71
2023-01-18T08:34:09.406Z,76.36
2023-01-18T08:36:36.966Z,76.56
2023-01-18T08:39:05.099Z,76.51
2023-01-18T08:41:32.100Z,76.36
2023-01-18T08:43:59.892Z,76.13
2023-01-18T08:46:28.166Z,76.04
2023-01-18T08:48:58.584Z,75.96
2023-01-18T08:51:25.824Z,76.08
2023-01-18T08:53:56.607Z,76.00
2023-01-18T08:56:24.815Z,75.66
2023-01-18T08:58:52.211Z,75.49
2023-01-18T09:01:22.544Z,75.62
2023-01-18T09:03:50.136Z,75.60
2023-01-18T09:06:17.980Z,75.42
2023-01-18T09:08:47.713Z,75.33
2023-01-18T09:11:15.974Z,75.16
2023-01-18T09:13:59.349Z,75.28
2023-01-18T09:16:29.060Z,75.00
2023-01-18T09:18:57.042Z,75.12
2023-01-18T09:21:24.247Z,75.02
2023-01-18T09:23:51.704Z,75.28
2023-01-18T09:26:20.644Z,75.09
2023-01-18T09:28:52.617Z,75.09
2023-01-18T09:31:21.958Z,75.20
2023-01-18T09:33:53.737Z,75.21
2023-01-18T09:36:25.821Z,75.09
2023-01-18T09:38:54.591Z,75.08
2023-01-18T09:41:35.764Z,75.13
2023-01-18T09:44:10.160Z,75.27
2023-01-18T09:46:40.428Z,75.44
2023-01-18T09:49:16.372Z,75.63
2023-01-18T09:52:08.295Z,75.79
2023-01-18T09:54:40.876Z,75.62
2023-01-18T09:57:33.514Z,75.69
2023-01-18T10:00:01.073Z,75.74
2023-01-18T10:02:41.399Z,75.60
2023-01-18T10:05:34.690Z,75.78
2023-01-18T10:08:25.063Z,75.58
2023-01-18T10:11:03.878Z,75.48
2023-01-18T10:13:37.700Z,75.45
2023-01-18T10:16:15.145Z,75.51
2023-01-18T10:18:46.857Z,75.49
2023-01-18T10:21:48.448Z,75.71
2023-01-18T10:24:51.364Z,75.77
2023-01-18T10:27:40.415Z,75.66
2023-01-18T10:30:29.263Z,75.77
2023-01-18T10:32:59.858Z,75.38
2023-01-18T10:35:40.566Z,75.02
2023-01-18T10:38:15.373Z,75.09
2023-01-18T10:40:47.167Z,75.28
2023-01-18T10:43:16.970Z,75.14
2023-01-18T10:45:44.234Z,75.15
2023-01-18T10:48:17.409Z,74.85
2023-01-18T10:50:53.369Z,74.70
2023-01-18T10:53:24.426Z,75.00
2023-01-18T10:56:02.232Z,75.26
2023-01-18T10:58:43.610Z,75.38
2023-01-18T11:01:19.709Z,77.56
2023-01-18T11:03:50.190Z,80.09
2023-01-18T11:06:20.125Z,82.17
2023-01-18T11:08:49.214Z,83.79
2023-01-18T11:11:50.147Z,82.41
2023-01-18T11:14:26.541Z,83.72
2023-01-18T11:17:11.065Z,83.79
2023-01-18T11:19:41.177Z,85.70
2023-01-18T11:22:15.394Z,87.56
2023-01-18T11:24:43.066Z,86.48
2023-01-18T11:27:21.065Z,85.12
2023-01-18T11:29:50.103Z,85.62
2023-01-18T11:32:23.502Z,88.17
2023-01-18T11:34:56.541Z,87.34
2023-01-18T11:37:33.920Z,86.93
2023-01-18T11:40:26.372Z,87.47
2023-01-18T11:42:59.361Z,85.51
2023-01-18T11:45:58.566Z,85.54
2023-01-18T11:48:37.573Z,87.52
2023-01-18T11:51:27.048Z,89.48
2023-01-18T11:54:26.128Z,87.69
2023-01-18T11:56:59.300Z,84.81
2023-01-18T11:59:30.997Z,84.55
2023-01-18T12:02:20.064Z,84.52
2023-01-18T12:05:16.044Z,84.49
2023-01-18T12:08:18.305Z,84.42
2023-01-18T12:10:54.968Z,84.47
2023-01-18T12:13:28.777Z,85.56
2023-01-18T12:16:04.334Z,87.55
2023-01-18T12:18:40.795Z,93.06
2023-01-18T12:21:23.917Z,89.81
2023-01-18T12:24:18.289Z,87.04
2023-01-18T12:26:57.563Z,85.18
2023-01-18T12:29:40.438Z,84.07
2023-01-18T12:32:17.441Z,83.11
2023-01-18T12:34:53.246Z,83.14
2023-01-18T12:37:26.158Z,82.97
2023-01-18T12:40:12.552Z,82.26
2023-01-18T12:42:41.855Z,81.80
2023-01-18T12:45:35.473Z,81.61
2023-01-18T12:48:25.749Z,81.58
2023-01-18T12:50:55.923Z,81.77
2023-01-18T12:53:39.814Z,81.85
2023-01-18T12:56:15.315Z,81.77
2023-01-18T12:58:43.610Z,81.60
2023-01-18T13:01:19.902Z,81.58
2023-01-18T13:03:53.028Z,81.54
2023-01-18T13:06:20.715Z,80.74
2023-01-18T13:08:59.274Z,80.52
2023-01-18T13:11:29.741Z,79.73
2023-01-18T13:14:32.891Z,79.75
2023-01-18T13:17:04.775Z,79.84
2023-01-18T13:19:43.587Z,79.57
2023-01-18T13:22:17.119Z,79.47
2023-01-18T13:25:16.755Z,79.85
2023-01-18T13:28:01.914Z,79.50
2023-01-18T13:30:33.234Z,79.81
2023-01-18T13:33:12.317Z,79.86
2023-01-18T13:36:09.085Z,79.85
2023-01-18T13:38:57.034Z,79.76
2023-01-18T13:41:29.544Z,79.55
2023-01-18T13:44:03.915Z,79.47
2023-01-18T13:46:35.920Z,79.62
2023-01-18T13:49:38.260Z,79.89
2023-01-18T13:52:34.814Z,79.66
2023-01-18T13:55:24.657Z,79.23
2023-01-18T13:57:55.590Z,79.48
2023-01-18T14:00:25.832Z,79.60
2023-01-18T14:03:03.204Z,79.76
2023-01-18T14:05:44.175Z,79.68
2023-01-18T14:08:23.727Z,79.50
2023-01-18T14:10:54.249Z,79.57
2023-01-18T14:13:46.983Z,79.46
2023-01-18T14:16:30.866Z,79.51
2023-01-18T14:19:19.084Z,79.66
2023-01-18T14:22:06.826Z,79.72
2023-01-18T14:24:38.792Z,79.46
2023-01-18T14:27:08.990Z,79.41
2023-01-18T14:29:48.852Z,79.46
2023-01-18T14:32:32.418Z,79.39
2023-01-18T14:35:01.651Z,79.44
2023-01-18T14:37:34.014Z,79.52
2023-01-18T14:40:27.481Z,79.25
2023-01-18T14:43:40.501Z,79.18
2023-01-18T14:46:23.784Z,79.26
2023-01-18T14:48:55.521Z,79.38
2023-01-18T14:51:25.000Z,79.33
2023-01-18T14:53:57.647Z,79.29
2023-01-18T14:56:27.562Z,79.42
2023-01-18T14:59:00.509Z,79.27
2023-01-18T15:01:29.587Z,79.34
2023-01-18T15:04:00.405Z,79.30
2023-01-18T15:06:34.842Z,79.26
2023-01-18T15:09:05.344Z,79.42
2023-01-18T15:11:35.783Z,79.18
2023-01-18T15:14:12.321Z,79.21
2023-01-18T15:16:39.786Z,79.42
2023-01-18T15:19:23.399Z,79.26
2023-01-18T15:21:50.980Z,79.16
2023-01-18T15:24:24.342Z,79.09
2023-01-18T15:26:54.186Z,79.08
2023-01-18T15:29:33.626Z,78.68
2023-01-18T15:32:25.681Z,78.54
2023-01-18T15:34:55.307Z,78.42
2023-01-18T15:37:27.236Z,78.56
2023-01-18T15:40:00.473Z,78.71
2023-01-18T15:42:30.769Z,78.63
2023-01-18T15:44:59.770Z,78.64
2023-01-18T15:47:36.156Z,78.82
2023-01-18T15:50:16.006Z,78.80
2023-01-18T15:52:53.477Z,78.75
2023-01-18T15:55:45.395Z,78.97
2023-01-18T15:58:23.153Z,79.15
2023-01-18T16:01:00.030Z,79.29
2023-01-18T16:03:40.019Z,79.39
2023-01-18T16:06:12.717Z,79.03
2023-01-18T16:09:13.414Z,79.64
2023-01-18T16:11:40.793Z,79.69
2023-01-18T16:14:27.649Z,79.82
2023-01-18T16:16:58.235Z,80.00
2023-01-18T16:19:31.309Z,80.47
2023-01-18T16:22:02.159Z,80.75
2023-01-18T16:24:50.661Z,80.78
2023-01-18T16:27:21.021Z,81.09
2023-01-18T16:29:54.903Z,81.29
2023-01-18T16:32:27.409Z,81.65
2023-01-18T16:34:58.272Z,81.54
2023-01-18T16:37:26.022Z,81.68
2023-01-18T16:39:56.398Z,81.91
2023-01-18T16:42:33.131Z,81.98
2023-01-18T16:45:13.258Z,81.83
2023-01-18T16:47:42.483Z,81.81
2023-01-18T16:50:14.913Z,81.62
2023-01-18T16:52:42.722Z,81.99
2023-01-18T16:55:14.330Z,82.05
2023-01-18T16:57:42.763Z,82.31
2023-01-18T17:00:17.265Z,82.48
2023-01-18T17:02:45.653Z,82.54
2023-01-18T17:05:15.421Z,82.64
2023-01-18T17:07:43.359Z,82.10
2023-01-18T17:10:20.308Z,82.60
2023-01-18T17:12:48.484Z,82.87
2023-01-18T17:15:15.880Z,82.78
2023-01-18T17:17:43.368Z,82.90
2023-01-18T17:20:22.239Z,83.00
2023-01-18T17:22:53.368Z,83.21
2023-01-18T17:25:21.439Z,83.29
2023-01-18T17:27:49.358Z,83.24
2023-01-18T17:30:21.539Z,83.35
2023-01-18T17:32:49.741Z,83.38
2023-01-18T17:35:18.911Z,83.67
2023-01-18T17:37:46.867Z,83.69
2023-01-18T17:40:23.397Z,83.59
2023-01-18T17:42:52.560Z,83.59
2023-01-18T17:45:19.605Z,83.54
2023-01-18T17:47:47.075Z,83.56
2023-01-18T17:50:21.127Z,83.69
2023-01-18T17:52:48.556Z,84.00
2023-01-18T17:55:17.873Z,83.92
2023-01-18T17:57:47.050Z,83.85
2023-01-18T18:00:15.608Z,84.01
2023-01-18T18:02:43.327Z,83.98
2023-01-18T18:05:10.880Z,84.09
2023-01-18T18:07:38.133Z,84.19
2023-01-18T18:10:05.900Z,84.17
2023-01-18T18:12:35.323Z,84.32
2023-01-18T18:15:04.243Z,84.28
2023-01-18T18:17:31.936Z,84.41
2023-01-18T18:20:00.840Z,84.40
2023-01-18T18:22:29.580Z,84.46
2023-01-18T18:24:57.742Z,84.27
2023-01-18T18:27:37.271Z,84.44
2023-01-18T18:30:12.459Z,84.40
2023-01-18T18:32:39.859Z,84.49
2023-01-18T18:35:19.127Z,84.41
2023-01-18T18:37:50.761Z,84.49
2023-01-18T18:40:18.750Z,84.39
2023-01-18T18:42:56.466Z,84.34
2023-01-18T18:45:27.964Z,84.34
2023-01-18T18:47:55.859Z,84.46
2023-01-18T18:50:23.197Z,84.51
2023-01-18T18:52:50.327Z,84.70
2023-01-18T18:55:18.520Z,84.59
2023-01-18T18:57:45.894Z,84.70
2023-01-18T19:00:13.497Z,84.72
2023-01-18T19:02:41.012Z,84.48
2023-01-18T19:05:12.758Z,84.61
2023-01-18T19:07:41.837Z,84.68
2023-01-18T19:10:11.044Z,84.65
2023-01-18T19:12:39.195Z,84.62
2023-01-18T19:15:06.900Z,84.57
2023-01-18T19:17:34.059Z,84.71
2023-01-18T19:20:01.373Z,84.84
2023-01-18T19:22:28.859Z,84.95
2023-01-18T19:24:57.175Z,84.91
2023-01-18T19:27:24.366Z,84.89
2023-01-18T19:29:52.674Z,84.86
2023-01-18T19:32:21.356Z,85.12
2023-01-18T19:34:50.310Z,85.19
2023-01-18T19:37:17.996Z,85.19
2023-01-18T19:39:45.797Z,85.24
2023-01-18T19:42:13.108Z,85.25
2023-01-18T19:44:40.242Z,85.29
2023-01-18T19:47:07.653Z,85.35
2023-01-18T19:49:34.984Z,85.33
2023-01-18T19:52:02.059Z,85.11
2023-01-18T19:54:29.196Z,85.23
2023-01-18T19:56:56.983Z,85.09
2023-01-18T19:59:24.302Z,85.22
2023-01-18T20:01:51.974Z,85.21
2023-01-18T20:04:21.227Z,85.07
2023-01-18T20:06:48.777Z,84.99
2023-01-18T20:09:19.799Z,84.96
2023-01-18T20:11:48.839Z,84.82
2023-01-18T20:14:17.816Z,84.84
2023-01-18T20:16:46.233Z,84.64
2023-01-18T20:19:19.862Z,84.69
2023-01-18T20:21:47.067Z,84.48
2023-01-18T20:24:14.530Z,84.54
2023-01-18T20:26:42.294Z,84.37
2023-01-18T20:29:10.679Z,84.10
2023-01-18T20:31:39.374Z,84.00
2023-01-18T20:34:07.095Z,83.83
2023-01-18T20:36:35.563Z,83.97
2023-01-18T20:39:04.340Z,83.75
2023-01-18T20:41:31.676Z,83.43
2023-01-18T20:43:59.105Z,83.56
2023-01-18T20:46:26.302Z,83.51
2023-01-18T20:48:53.549Z,83.80
2023-01-18T20:51:21.010Z,83.74
2023-01-18T20:53:49.315Z,83.87
2023-01-18T20:56:28.774Z,83.80
2023-01-18T20:58:57.531Z,83.90
2023-01-18T21:01:31.121Z,84.09
2023-01-18T21:04:01.256Z,84.24
2023-01-18T21:06:28.923Z,84.36
2023-01-18T21:08:57.975Z,84.38
2023-01-18T21:11:26.299Z,84.42
2023-01-18T21:13:54.950Z,84.50
2023-01-18T21:16:24.076Z,84.44
2023-01-18T21:18:55.631Z,84.40
2023-01-18T21:21:23.373Z,84.53
2023-01-18T21:23:50.402Z,84.37
2023-01-18T21:26:17.733Z,84.52
2023-01-18T21:28:45.078Z,84.43
2023-01-18T21:31:12.647Z,84.24
2023-01-18T21:33:40.115Z,84.37
2023-01-18T21:36:12.237Z,84.46
2023-01-18T21:38:39.607Z,84.36
2023-01-18T21:41:25.514Z,84.25
2023-01-18T21:44:12.756Z,84.25
2023-01-18T21:46:51.315Z,84.26
2023-01-18T21:50:16.135Z,84.35
2023-01-18T21:52:44.048Z,84.25
2023-01-18T21:55:11.082Z,84.10
2023-01-18T21:57:38.198Z,83.84
2023-01-18T22:00:09.167Z,83.51
2023-01-18T22:02:37.062Z,83.30
2023-01-18T22:05:05.089Z,83.17
2023-01-18T22:07:34.615Z,82.95
2023-01-18T22:10:06.822Z,82.62
2023-01-18T22:12:34.509Z,82.53
2023-01-18T22:15:02.405Z,82.07
2023-01-18T22:17:30.266Z,82.11
2023-01-18T22:19:57.334Z,81.62
2023-01-18T22:22:24.593Z,81.58
2023-01-18T22:24:51.919Z,81.17
2023-01-18T22:27:19.313Z,81.12
2023-01-18T22:29:46.365Z,80.87
2023-01-18T22:32:13.523Z,80.40
2023-01-18T22:34:40.571Z,80.28
2023-01-18T22:37:07.691Z,80.43
2023-01-18T22:39:34.682Z,80.07
2023-01-18T22:42:01.772Z,79.83
2023-01-18T22:44:28.927Z,79.73
2023-01-18T22:46:56.587Z,79.80
2023-01-18T22:49:23.922Z,79.43
2023-01-18T22:51:50.970Z,79.33
2023-01-18T22:54:21.959Z,78.77
2023-01-18T22:56:49.267Z,78.67
2023-01-18T22:59:16.424Z,78.68
2023-01-18T23:01:43.637Z,78.31
2023-01-18T23:04:10.808Z,78.23
2023-01-18T23:06:47.427Z,78.09
2023-01-18T23:09:16.948Z,78.34
2023-01-18T23:11:45.168Z,78.35
2023-01-18T23:14:30.975Z,78.16
2023-01-18T23:17:17.267Z,78.20
2023-01-18T23:19:44.331Z,78.12
2023-01-18T23:22:11.393Z,78.15
2023-01-18T23:24:39.055Z,77.98
2023-01-18T23:27:11.273Z,77.96
2023-01-18T23:29:38.896Z,78.09
2023-01-18T23:32:06.779Z,77.98
2023-01-18T23:34:33.888Z,78.22
2023-01-18T23:37:00.963Z,78.27
2023-01-18T23:39:47.564Z,78.42
2023-01-18T23:42:33.262Z,78.83
2023-01-18T23:45:19.221Z,78.98
2023-01-18T23:48:05.302Z,79.13
2023-01-18T23:50:51.018Z,79.26
2023-01-18T23:53:36.431Z,79.31
2023-01-18T23:56:03.527Z,79.40
2023-01-18T23:58:30.543Z,79.68
